URMLURMM

Guest
Details From URML - UYTASH
To URMM - MINERALNYYE VODY
Flight Number -
Tags generated
Created
Modified
Stats Distance 224 nm / 416 km
Max Altitude 20,700 ft / 6,309 m
Waypoints 4
Social Downloads 0
Likes 0
Share VATSIM

Download

Looking for another format? Having issues loading an existing format? Contact us
Advertisement - Login to hide

Notes

Basic altitude profile: - Ascent Rate: 2500ft/min - Ascent Speed: 250kts - Cruise Altitude: 21700ft - Cruise Speed: 420kts - Descent Rate: 2000ft/min - Descent Speed: 250kts

Route

URML BELNI B494 NASTA URMM

ID Type Via Altitude Latitude Longitude Leg Dist Tot Dist Heading (true) Name
O URML APT - 0 ft / 0 m 42.81658˚ 47.65193˚ - 0 nm - UYTASH
BELNI FIX - 20,700 ft / 6,309 m 43.91972˚ 45.92028˚ 100 nm 100 nm 312° / 311° -
NASTA FIX B494 (AWY-HI) 20,700 ft / 6,309 m 43.99972˚ 45.21528˚ 30 nm 131 nm 279° / 279° -
O URMM APT - 0 ft / 0 m 44.22507˚ 43.08189˚ 92 nm 224 nm 279° / 278° MINERALNYYE VODY

Altitude Profile

Advertisement - Login to hide

Weather


0- 5 10 15 20 25 30 35+ Temperature / ° C

Clouds and Precipitation
Forecast for 2017-12-13 18:00 UTC. Updated 2 hours ago

Ground ~20,000 ft ~40,000 ft Winds

URML

Details ICAO URML (MCX)
Name UYTASH
Region Russia
Timezone Europe/Moscow (UTC+3.0)
Stats Elevation 12 ft / 4 m (AMSL)
Location 42.816582° 47.651930°
Runways 2
Magnetic Variation 7.057° E

METAR

URML 131900Z 16010MPS 9999 SCT013 OVC021 08/06 Q1023 R14/01//70 NOSIG RMK MT OBSC QFE767/1023

Decode

TAF

Not found

Departure Runways

ID Width Length Bearing (true) Bearing (mag) Surface Threshold Offset Overrun Length
14 138 ft / 42 m 8,643 ft / 2,634 m 148.10° 141.04° Concrete 0 ft / 0 m 0 ft / 0 m
14R 230 ft / 70 m 8,690 ft / 2,649 m 147.93° 140.87° Grass 0 ft / 0 m 0 ft / 0 m
32 138 ft / 42 m 8,643 ft / 2,634 m 328.11° 321.05° Concrete 0 ft / 0 m 0 ft / 0 m
32L 230 ft / 70 m 8,690 ft / 2,649 m 327.94° 320.88° Grass 0 ft / 0 m 0 ft / 0 m

URMM

Details ICAO URMM (MRV)
Name MINERALNYYE VODY
Region Russia
Timezone Europe/Moscow (UTC+3.0)
Stats Elevation 1,054 ft / 321 m (AMSL)
Location 44.225073° 43.081891°
Runways 1
Magnetic Variation 7.387° E

METAR

URMM 131900Z 10005MPS 9999 BKN004 00/00 Q1020 R12/090070 NOSIG RMK MT OBSC QFE737/0982

Decode

TAF

TAF URMM 131659Z 1318/1418 09005G10MPS 1200 BR OVC003 TX04/1410Z TNM03/1403Z TEMPO 1318/1406 0300 -FZDZ FZFG OVC002 BECMG 1408/1410 3100 BR OVC011

Decode

Destination Runways

ID Width Length Bearing (true) Bearing (mag) Surface Threshold Offset Overrun Length
12 197 ft / 60 m 12,766 ft / 3,891 m 122.28° 114.89° Concrete 0 ft / 0 m 240 ft / 73 m
30 197 ft / 60 m 12,766 ft / 3,891 m 302.31° 294.92° Concrete 0 ft / 0 m 250 ft / 76 m

Popular Alternatives